Time;durP1;ratioP1;P1;durP2;ratioP2;P2;SDS_P1;SDS_P2;PMS_P1;PMS_P2;Temp;Humidity;BMP_temperature;BMP_pressure;BME280_temperature;BME280_humidity;BME280_pressure;Samples;Min_cycle;Max_cycle;Signal;HPM_P1;HPM_P2
2022/05/11 00:01:51;;;;;;;4.00;3.60;;;15.10;24.10;;;;;;5008511;28;34390;-76
2022/05/11 00:04:18;;;;;;;4.38;3.78;;;15.00;24.10;;;;;;4973598;28;36895;-76
2022/05/11 00:06:44;;;;;;;4.10;3.67;;;14.90;24.20;;;;;;4989329;28;34348;-77
2022/05/11 00:09:12;;;;;;;4.80;3.60;;;14.90;24.40;;;;;;4990088;28;34218;-76
2022/05/11 00:11:38;;;;;;;4.05;3.65;;;14.80;24.60;;;;;;4989988;28;34075;-77
2022/05/11 00:14:05;;;;;;;4.07;3.60;;;14.70;24.60;;;;;;4989864;28;36210;-76
2022/05/11 00:16:32;;;;;;;4.03;3.60;;;14.70;24.70;;;;;;4974040;28;34100;-76
2022/05/11 00:18:57;;;;;;;4.88;3.65;;;14.60;24.80;;;;;;4990396;28;34043;-76
2022/05/11 00:21:24;;;;;;;5.60;4.00;;;14.60;25.00;;;;;;4990005;28;34430;-76
2022/05/11 00:23:53;;;;;;;5.25;4.22;;;14.50;25.10;;;;;;4989099;28;35968;-76
2022/05/11 00:26:19;;;;;;;4.93;3.90;;;14.50;25.50;;;;;;4993056;28;34097;-76
2022/05/11 00:28:45;;;;;;;4.30;3.75;;;14.40;25.40;;;;;;4993106;28;34447;-76
2022/05/11 00:31:12;;;;;;;5.38;3.97;;;14.30;25.40;;;;;;5008447;28;34389;-76
2022/05/11 00:33:38;;;;;;;3.97;3.67;;;14.30;25.50;;;;;;5009859;28;35475;-76
2022/05/11 00:36:09;;;;;;;4.22;3.83;;;14.20;25.50;;;;;;5012706;28;34254;-77
2022/05/11 00:38:35;;;;;;;4.50;3.80;;;14.20;26.50;;;;;;4995796;28;34297;-76
2022/05/11 00:41:01;;;;;;;4.53;4.13;;;14.10;25.80;;;;;;5012575;28;34077;-77
2022/05/11 00:43:31;;;;;;;9.05;4.13;;;14.10;26.00;;;;;;5011759;28;35876;-76
2022/05/11 00:46:10;;;;;;;5.55;4.35;;;14.00;26.80;;;;;;5012848;28;34056;-77
2022/05/11 00:51:18;;;;;;;4.45;4.05;;;13.90;26.70;;;;;;5028472;28;34149;-77
2022/05/11 00:53:52;;;;;;;4.85;4.13;;;13.90;26.60;;;;;;5010899;28;36135;-77
2022/05/11 00:56:18;;;;;;;4.95;4.50;;;13.90;27.90;;;;;;5010758;28;34115;-77
2022/05/11 00:58:50;;;;;;;5.13;4.40;;;13.80;27.00;;;;;;5011878;28;34003;-76
2022/05/11 01:01:17;;;;;;;5.63;4.47;;;13.80;27.60;;;;;;5011779;28;34347;-77
2022/05/11 01:03:51;;;;;;;6.32;4.40;;;13.80;27.10;;;;;;4995122;28;36231;-76
2022/05/11 01:06:19;;;;;;;4.63;4.10;;;13.80;28.30;;;;;;4979400;28;34167;-76
2022/05/11 01:08:45;;;;;;;6.47;4.15;;;13.70;27.30;;;;;;4995301;28;34113;-77
2022/05/11 01:11:11;;;;;;;5.75;3.88;;;13.60;27.30;;;;;;5011342;28;34062;-77
2022/05/11 01:13:41;;;;;;;4.28;3.85;;;13.60;27.50;;;;;;5010733;28;36169;-76
2022/05/11 01:16:07;;;;;;;4.63;4.07;;;13.60;27.90;;;;;;5012734;28;34279;-76
2022/05/11 01:18:34;;;;;;;6.68;4.93;;;13.50;27.80;;;;;;5011484;28;34241;-76
2022/05/11 01:21:04;;;;;;;5.35;4.38;;;13.50;27.90;;;;;;5028726;28;34077;-76
2022/05/11 01:23:40;;;;;;;4.40;3.97;;;13.40;28.30;;;;;;5010546;28;36127;-77
2022/05/11 01:26:06;;;;;;;5.85;4.07;;;13.40;29.60;;;;;;5031131;28;34262;-78
2022/05/11 01:28:32;;;;;;;5.03;4.00;;;13.40;28.00;;;;;;4996001;28;34155;-76
2022/05/11 01:31:06;;;;;;;4.43;4.03;;;13.30;28.10;;;;;;4995004;28;34253;-76
2022/05/11 01:33:32;;;;;;;4.88;4.38;;;13.30;29.20;;;;;;4994867;28;35499;-76
2022/05/11 01:36:24;;;;;;;6.38;4.07;;;13.20;28.00;;;;;;5011720;28;34265;-77
2022/05/11 01:38:52;;;;;;;4.85;4.25;;;13.20;31.80;;;;;;4982147;28;34248;-77
2022/05/11 01:41:36;;;;;;;5.05;4.10;;;13.10;28.20;;;;;;5012025;28;34201;-76
2022/05/11 01:44:04;;;;;;;5.25;4.57;;;13.10;28.40;;;;;;5010858;28;35650;-77
2022/05/11 01:46:31;;;;;;;4.78;4.35;;;13.00;28.40;;;;;;5010371;28;34312;-76
2022/05/11 01:48:57;;;;;;;4.60;4.20;;;12.90;28.30;;;;;;5011724;28;34428;-76
2022/05/11 01:51:23;;;;;;;4.68;4.28;;;12.90;28.30;;;;;;5010603;28;34143;-77
2022/05/11 01:53:49;;;;;;;4.88;4.28;;;12.80;28.40;;;;;;4994363;28;36342;-76
2022/05/11 01:56:19;;;;;;;5.88;4.45;;;12.80;28.50;;;;;;5028114;28;34215;-77
2022/05/11 01:58:45;;;;;;;5.05;4.32;;;12.80;28.80;;;;;;5011319;28;34316;-77
2022/05/11 02:01:15;;;;;;;4.82;4.32;;;12.70;28.80;;;;;;5028897;28;34245;-78
2022/05/11 02:03:42;;;;;;;5.10;4.60;;;12.70;28.80;;;;;;5010504;28;35798;-77
2022/05/11 02:08:50;;;;;;;6.47;4.40;;;12.70;29.10;;;;;;5027050;28;34196;-76
2022/05/11 02:11:16;;;;;;;4.65;4.18;;;12.70;29.20;;;;;;5028265;28;34351;-76
2022/05/11 02:13:45;;;;;;;5.22;4.72;;;12.60;29.20;;;;;;5010708;28;34279;-77
2022/05/11 02:16:12;;;;;;;5.00;4.50;;;12.60;29.40;;;;;;5027539;28;34282;-76
2022/05/11 02:18:38;;;;;;;4.82;4.32;;;12.60;29.40;;;;;;5027513;28;34165;-76
2022/05/11 02:21:07;;;;;;;4.53;4.13;;;12.60;29.50;;;;;;5028780;28;34307;-76
2022/05/11 02:23:33;;;;;;;5.95;4.50;;;12.60;29.60;;;;;;5010417;28;35672;-76
2022/05/11 02:25:59;;;;;;;5.25;4.75;;;12.60;29.60;;;;;;5010799;28;33998;-76
2022/05/11 02:28:26;;;;;;;5.10;4.60;;;12.60;29.60;;;;;;5010097;28;34543;-76
2022/05/11 02:30:54;;;;;;;5.68;4.38;;;12.60;29.60;;;;;;4994095;28;34637;-77
2022/05/11 02:33:21;;;;;;;5.63;4.68;;;12.50;30.00;;;;;;5009291;28;36236;-76
2022/05/11 02:35:47;;;;;;;5.22;4.68;;;12.50;29.80;;;;;;5009645;28;34414;-76
2022/05/11 02:38:17;;;;;;;4.65;4.25;;;12.50;29.70;;;;;;5009688;28;34161;-76
2022/05/11 02:40:43;;;;;;;4.35;3.95;;;12.40;30.10;;;;;;5010298;28;34174;-76
2022/05/11 02:43:11;;;;;;;6.40;4.93;;;12.40;29.90;;;;;;4993370;28;35837;-76
2022/05/11 02:45:39;;;;;;;4.93;4.43;;;12.30;29.90;;;;;;5010180;28;34157;-77
2022/05/11 02:48:07;;;;;;;4.70;3.95;;;12.30;30.00;;;;;;5009948;28;34589;-76
2022/05/11 02:50:38;;;;;;;5.20;4.70;;;12.30;30.00;;;;;;5010034;28;33949;-77
2022/05/11 02:53:07;;;;;;;4.45;4.05;;;12.20;30.20;;;;;;5009349;28;35936;-76
2022/05/11 02:55:36;;;;;;;5.18;3.92;;;12.20;29.90;;;;;;5009422;28;34105;-77
2022/05/11 02:58:04;;;;;;;4.53;4.10;;;12.20;30.30;;;;;;5009101;28;34273;-77
2022/05/11 03:00:31;;;;;;;4.50;4.10;;;12.20;30.20;;;;;;4977492;28;34108;-77
2022/05/11 03:02:59;;;;;;;4.97;4.18;;;12.10;30.20;;;;;;4992900;28;36094;-77
2022/05/11 03:05:25;;;;;;;4.60;4.20;;;12.10;30.30;;;;;;4993348;28;34427;-77
2022/05/11 03:07:51;;;;;;;6.97;4.60;;;12.00;30.20;;;;;;5027754;28;34298;-77
2022/05/11 03:10:16;;;;;;;4.70;4.30;;;12.00;30.30;;;;;;4993574;28;34157;-77
2022/05/11 03:12:42;;;;;;;4.47;4.07;;;12.00;30.30;;;;;;5027691;28;35291;-77
2022/05/11 03:15:10;;;;;;;4.60;4.20;;;11.90;30.40;;;;;;5009381;28;34212;-77
2022/05/11 03:17:36;;;;;;;7.30;4.40;;;11.90;30.60;;;;;;4993541;28;34032;-77
2022/05/11 03:20:04;;;;;;;5.15;4.65;;;11.80;30.60;;;;;;5027782;28;34228;-78
2022/05/11 03:22:30;;;;;;;5.57;4.78;;;11.80;30.70;;;;;;4993235;28;36604;-77
2022/05/11 03:24:56;;;;;;;5.47;4.25;;;11.80;30.90;;;;;;5009302;28;34145;-77
2022/05/11 03:27:22;;;;;;;4.93;4.43;;;11.70;31.10;;;;;;5008952;28;34248;-77
2022/05/11 03:29:48;;;;;;;5.38;4.88;;;11.70;31.10;;;;;;5008828;28;34218;-77
2022/05/11 03:34:56;;;;;;;7.68;4.60;;;11.70;31.20;;;;;;4996777;28;34285;-77
2022/05/11 03:37:22;;;;;;;5.97;4.35;;;11.60;31.10;;;;;;5009844;28;34232;-77
2022/05/11 03:39:48;;;;;;;5.47;4.88;;;11.60;31.20;;;;;;4977188;28;34166;-77
2022/05/11 03:42:17;;;;;;;4.70;4.30;;;11.50;31.20;;;;;;5008826;28;34481;-78
2022/05/11 03:44:43;;;;;;;4.85;4.38;;;11.50;31.40;;;;;;4992470;28;34047;-77
2022/05/11 03:47:09;;;;;;;4.70;4.30;;;11.50;31.40;;;;;;4992125;28;34126;-77
2022/05/11 03:49:35;;;;;;;4.70;4.15;;;11.50;31.40;;;;;;5008036;28;34520;-77
2022/05/11 03:52:01;;;;;;;5.47;4.97;;;11.40;31.60;;;;;;5008058;28;35935;-77
2022/05/11 03:54:28;;;;;;;5.70;4.80;;;11.40;31.60;;;;;;5008111;28;34126;-77
2022/05/11 03:56:53;;;;;;;5.18;4.50;;;11.40;31.60;;;;;;5008549;28;34222;-78
2022/05/11 03:59:19;;;;;;;5.38;4.47;;;11.40;31.70;;;;;;5008819;28;34150;-78
2022/05/11 04:01:45;;;;;;;5.18;4.68;;;11.40;31.80;;;;;;4975641;28;35729;-77
2022/05/11 04:04:12;;;;;;;5.93;4.40;;;11.30;31.80;;;;;;5008396;28;34106;-77
2022/05/11 04:06:38;;;;;;;6.82;4.60;;;11.30;31.80;;;;;;4992454;28;34318;-78
2022/05/11 04:09:03;;;;;;;4.60;4.20;;;11.30;31.80;;;;;;4992404;28;34165;-78
2022/05/11 04:11:30;;;;;;;5.55;4.50;;;11.30;31.80;;;;;;4991925;28;35504;-78
2022/05/11 04:13:57;;;;;;;5.47;4.97;;;11.30;31.90;;;;;;5008853;28;34324;-78
2022/05/11 04:16:24;;;;;;;4.80;4.25;;;11.30;31.90;;;;;;5008999;28;34162;-79
2022/05/11 04:18:50;;;;;;;6.88;4.60;;;11.20;31.80;;;;;;4992914;28;34018;-78
2022/05/11 04:21:15;;;;;;;4.65;4.25;;;11.30;32.00;;;;;;5007442;28;36748;-78
2022/05/11 04:23:41;;;;;;;5.05;4.22;;;11.20;31.90;;;;;;5009681;28;34082;-77
2022/05/11 04:26:08;;;;;;;5.07;4.53;;;11.20;31.90;;;;;;5008086;28;34275;-78
2022/05/11 04:28:35;;;;;;;5.95;4.68;;;11.20;32.00;;;;;;4991623;28;34094;-77
2022/05/11 04:31:03;;;;;;;4.50;4.10;;;11.10;32.00;;;;;;4974863;28;35632;-78
2022/05/11 04:33:30;;;;;;;4.90;4.35;;;11.10;32.20;;;;;;5007766;28;33658;-78
2022/05/11 04:35:56;;;;;;;4.85;4.35;;;11.10;32.20;;;;;;5007761;28;34323;-77
2022/05/11 04:38:22;;;;;;;5.78;5.18;;;11.10;32.30;;;;;;5007398;28;34241;-77
2022/05/11 04:40:48;;;;;;;7.20;4.47;;;11.10;32.60;;;;;;5007007;28;36575;-78
2022/05/11 04:43:15;;;;;;;6.57;5.00;;;11.10;32.60;;;;;;5024838;28;34347;-78
2022/05/11 04:45:43;;;;;;;9.43;5.03;;;11.10;32.70;;;;;;5007263;28;34145;-77
2022/05/11 04:48:09;;;;;;;7.40;5.03;;;11.20;32.80;;;;;;4990925;28;34523;-77
2022/05/11 04:50:38;;;;;;;5.07;4.63;;;11.20;32.80;;;;;;5006908;28;34340;-77
2022/05/11 04:53:04;;;;;;;9.68;5.15;;;11.20;32.80;;;;;;4990785;28;34284;-77
2022/05/11 04:55:30;;;;;;;5.13;4.47;;;11.20;32.80;;;;;;4990377;28;34451;-77
2022/05/11 04:57:56;;;;;;;4.68;4.28;;;11.30;32.90;;;;;;5005890;28;34315;-77
2022/05/11 05:00:25;;;;;;;5.45;4.45;;;11.30;33.00;;;;;;5006638;28;35889;-77
2022/05/11 05:02:51;;;;;;;5.05;4.55;;;11.30;33.10;;;;;;5006682;28;34172;-77
2022/05/11 05:05:18;;;;;;;5.20;4.70;;;11.30;33.10;;;;;;5006438;28;34424;-78
2022/05/11 05:07:45;;;;;;;5.60;4.72;;;11.40;33.20;;;;;;4991124;28;34600;-77
2022/05/11 05:10:13;;;;;;;5.30;4.63;;;11.50;33.10;;;;;;5006687;28;36655;-77
2022/05/11 05:12:41;;;;;;;6.35;5.20;;;11.90;33.10;;;;;;5025048;28;34126;-78
2022/05/11 05:15:08;;;;;;;5.53;5.03;;;12.60;32.30;;;;;;5006330;28;34109;-77
2022/05/11 05:17:34;;;;;;;5.40;4.90;;;13.30;30.80;;;;;;5006398;28;34415;-77
2022/05/11 05:20:00;;;;;;;5.78;4.55;;;14.10;29.10;;;;;;5006986;28;35597;-78
2022/05/11 05:22:26;;;;;;;4.82;4.38;;;14.80;27.60;;;;;;5010349;28;34224;-78
2022/05/11 05:24:52;;;;;;;4.30;3.90;;;15.40;26.50;;;;;;4994464;28;34400;-78
2022/05/11 05:27:19;;;;;;;4.63;4.22;;;15.90;25.60;;;;;;5027905;28;34163;-77
2022/05/11 05:32:27;;;;;;;5.93;4.80;;;17.00;23.60;;;;;;5012350;28;34328;-78
2022/05/11 05:34:57;;;;;;;7.32;4.45;;;17.70;22.70;;;;;;4991579;28;34233;-78
2022/05/11 05:37:23;;;;;;;4.28;3.95;;;18.30;22.50;;;;;;4990775;28;34482;-78
2022/05/11 05:39:49;;;;;;;7.10;4.55;;;18.80;21.00;;;;;;5008010;28;34180;-77
2022/05/11 05:42:26;;;;;;;4.93;4.43;;;19.30;20.30;;;;;;4957659;28;34117;-77
2022/05/11 05:44:52;;;;;;;6.45;4.32;;;19.80;19.40;;;;;;4995832;28;34339;-78
2022/05/11 05:47:18;;;;;;;4.72;4.22;;;20.30;19.00;;;;;;5008610;28;34135;-77
2022/05/11 05:49:45;;;;;;;8.23;4.10;;;20.80;18.50;;;;;;4989292;28;35432;-77
2022/05/11 05:52:17;;;;;;;5.03;4.63;;;21.20;18.00;;;;;;5006473;28;34348;-77
2022/05/11 05:54:43;;;;;;;4.57;4.13;;;21.60;16.90;;;;;;4989444;28;34221;-77
2022/05/11 05:57:10;;;;;;;4.70;4.30;;;22.00;16.90;;;;;;4972685;28;34132;-77
2022/05/11 05:59:36;;;;;;;4.93;4.40;;;22.30;16.50;;;;;;4956355;28;36013;-77
2022/05/11 06:02:02;;;;;;;5.43;4.50;;;22.60;15.90;;;;;;4989287;28;34073;-77
2022/05/11 06:04:28;;;;;;;5.80;4.13;;;22.80;15.50;;;;;;4972527;28;33997;-75
2022/05/11 06:06:53;;;;;;;4.60;4.18;;;22.90;15.30;;;;;;4989029;28;34136;-76
2022/05/11 06:09:19;;;;;;;7.50;4.45;;;23.20;15.10;;;;;;4972675;28;35224;-76
2022/05/11 06:11:45;;;;;;;5.15;4.65;;;23.30;14.90;;;;;;4989154;28;34462;-77
2022/05/11 06:14:12;;;;;;;5.88;4.82;;;23.70;15.00;;;;;;4992800;28;34109;-78
2022/05/11 06:16:38;;;;;;;4.75;4.30;;;24.10;14.70;;;;;;4993000;28;34176;-77
2022/05/11 06:19:05;;;;;;;4.47;4.00;;;24.50;14.30;;;;;;4992413;28;35861;-76
2022/05/11 06:21:33;;;;;;;5.57;4.90;;;24.80;13.70;;;;;;5013610;28;34210;-77
2022/05/11 06:23:59;;;;;;;6.88;4.82;;;25.00;13.10;;;;;;4991179;28;34266;-77
2022/05/11 06:26:25;;;;;;;7.60;4.90;;;25.20;12.80;;;;;;4971968;28;34052;-76
2022/05/11 06:28:51;;;;;;;5.72;4.53;;;25.40;12.50;;;;;;4987769;28;36273;-77
2022/05/11 06:31:17;;;;;;;5.20;4.68;;;25.40;12.00;;;;;;4983172;28;34346;-76
2022/05/11 06:33:49;;;;;;;6.75;5.43;;;25.50;11.80;;;;;;4989691;28;34254;-76
2022/05/11 06:36:15;;;;;;;5.78;5.22;;;25.60;11.60;;;;;;5001650;28;34193;-77
2022/05/11 06:38:41;;;;;;;5.28;4.70;;;25.80;11.40;;;;;;5007739;28;36354;-76
2022/05/11 06:41:10;;;;;;;6.60;4.35;;;26.00;11.60;;;;;;5004109;28;34133;-76
2022/05/11 06:43:36;;;;;;;7.97;4.57;;;26.10;10.90;;;;;;4989341;28;34190;-77
2022/05/11 06:46:02;;;;;;;5.55;4.97;;;26.10;11.10;;;;;;4981655;28;34051;-76
2022/05/11 06:48:28;;;;;;;6.40;4.70;;;26.30;10.70;;;;;;4976726;28;35858;-76
2022/05/11 06:50:53;;;;;;;5.70;4.90;;;26.20;10.60;;;;;;4988274;28;34190;-76
2022/05/11 06:53:20;;;;;;;5.03;4.45;;;26.30;10.40;;;;;;4979696;28;34126;-77
2022/05/11 07:01:10;;;;;;;5.20;4.28;;;26.50;10.00;;;;;;5013506;28;34173;-78
2022/05/11 07:03:35;;;;;;;5.90;4.28;;;26.60;10.00;;;;;;4991454;28;35738;-76
2022/05/11 07:06:04;;;;;;;5.68;4.20;;;26.70;9.80;;;;;;4984470;28;34514;-76
2022/05/11 07:08:35;;;;;;;14.55;5.38;;;26.70;9.40;;;;;;5004967;28;35088;-76
2022/05/11 07:13:42;;;;;;;10.82;5.03;;;26.40;10.10;;;;;;4995911;28;34228;-77
2022/05/11 07:16:08;;;;;;;7.82;5.00;;;26.30;10.30;;;;;;4988806;28;34575;-76
2022/05/11 07:18:35;;;;;;;7.18;4.18;;;26.30;10.30;;;;;;4987490;28;36486;-75
2022/05/11 07:21:02;;;;;;;8.90;4.35;;;26.20;10.60;;;;;;4988631;28;34016;-76
2022/05/11 07:23:28;;;;;;;4.90;4.40;;;26.20;10.70;;;;;;4986934;28;34088;-77
2022/05/11 07:25:54;;;;;;;5.95;4.20;;;26.20;10.70;;;;;;4987619;28;34283;-76
2022/05/11 07:28:22;;;;;;;4.60;3.95;;;26.10;10.80;;;;;;5004769;28;34368;-78
2022/05/11 07:30:50;;;;;;;23.17;4.55;;;26.10;10.80;;;;;;5005674;28;34330;-78
2022/05/11 07:33:17;;;;;;;4.90;3.58;;;26.20;10.90;;;;;;4987149;28;34378;-76
2022/05/11 07:35:44;;;;;;;5.57;4.20;;;26.10;10.90;;;;;;5004611;28;34082;-76
2022/05/11 07:38:14;;;;;;;3.90;3.50;;;26.20;10.90;;;;;;4971332;28;36880;-77
2022/05/11 07:40:41;;;;;;;4.90;3.60;;;26.30;10.50;;;;;;5004765;28;34281;-77
2022/05/11 07:43:08;;;;;;;5.57;3.65;;;26.50;10.90;;;;;;5006635;28;34168;-76
2022/05/11 07:45:35;;;;;;;5.90;4.00;;;26.50;10.70;;;;;;5025243;28;34489;-77
2022/05/11 07:48:01;;;;;;;6.45;3.65;;;26.40;10.60;;;;;;5007379;28;36228;-78
2022/05/11 07:50:27;;;;;;;4.60;3.78;;;26.40;10.60;;;;;;4990831;28;34094;-77
2022/05/11 07:52:54;;;;;;;4.65;3.20;;;26.60;10.60;;;;;;5005588;28;34350;-78
2022/05/11 07:55:24;;;;;;;3.40;3.10;;;26.80;10.50;;;;;;5006445;28;34530;-77
2022/05/11 08:00:37;;;;;;;3.97;3.13;;;27.20;10.60;;;;;;5016297;28;34196;-76
2022/05/11 08:03:04;;;;;;;3.50;2.92;;;27.30;10.30;;;;;;5007158;28;34165;-77
2022/05/11 08:05:32;;;;;;;2.60;2.40;;;27.50;9.90;;;;;;5005368;28;34106;-78
2022/05/11 08:08:02;;;;;;;5.57;2.60;;;27.50;9.90;;;;;;5006373;28;34777;-77
2022/05/11 08:10:30;;;;;;;4.72;2.67;;;27.70;9.40;;;;;;4989087;28;34339;-77
2022/05/11 08:12:57;;;;;;;6.28;2.90;;;27.70;8.50;;;;;;4987808;28;34147;-77
2022/05/11 08:15:27;;;;;;;2.35;2.15;;;27.80;9.70;;;;;;4987993;28;34460;-77
2022/05/11 08:17:53;;;;;;;2.45;2.25;;;27.70;9.00;;;;;;5006687;28;35195;-78
2022/05/11 08:20:56;;;;;;;3.13;2.22;;;27.80;9.10;;;;;;4969141;28;34199;-77
2022/05/11 08:23:22;;;;;;;2.33;2.13;;;28.20;6.20;;;;;;4996857;28;34195;-76
2022/05/11 08:26:07;;;;;;;2.42;2.20;;;28.30;9.00;;;;;;5015507;28;34177;-77
2022/05/11 08:28:33;;;;;;;3.60;2.00;;;28.50;8.70;;;;;;4987949;28;36065;-78
2022/05/11 08:33:42;;;;;;;6.85;2.15;;;28.80;8.00;;;;;;5019964;28;34310;-77
2022/05/11 08:36:16;;;;;;;4.68;2.28;;;28.80;7.40;;;;;;4987813;28;34252;-79
2022/05/11 08:39:01;;;;;;;2.67;2.10;;;28.90;5.70;;;;;;4987470;28;35956;-78
2022/05/11 08:41:45;;;;;;;4.00;2.30;;;28.90;3.80;;;;;;5001861;28;34243;-77
2022/05/11 08:44:32;;;;;;;12.80;3.40;;;28.80;4.70;;;;;;5007143;28;34378;-75
2022/05/11 08:47:27;;;;;;;8.45;2.10;;;28.90;4.50;;;;;;4988172;28;34252;-77
2022/05/11 08:49:59;;;;;;;3.20;2.05;;;29.00;3.70;;;;;;4987490;28;36129;-77
2022/05/11 08:52:40;;;;;;;4.30;2.30;;;29.00;6.60;;;;;;4970640;28;34128;-78
2022/05/11 08:55:12;;;;;;;2.80;2.10;;;29.00;4.60;;;;;;4990574;28;34377;-75
2022/05/11 08:57:39;;;;;;;3.58;2.13;;;28.80;5.20;;;;;;4993794;28;34204;-77
2022/05/11 09:00:11;;;;;;;2.22;2.03;;;28.70;5.80;;;;;;5009784;28;35648;-75
2022/05/11 09:02:52;;;;;;;3.45;2.10;;;28.60;6.30;;;;;;5020278;28;34352;-78
2022/05/11 09:05:23;;;;;;;2.45;2.25;;;28.60;3.50;;;;;;4974351;28;34141;-77
2022/05/11 09:07:52;;;;;;;3.50;1.70;;;28.70;5.80;;;;;;4990917;28;34459;-76
2022/05/11 09:10:24;;;;;;;2.67;1.90;;;28.70;6.60;;;;;;5008276;28;34407;-76
2022/05/11 09:12:55;;;;;;;2.30;1.80;;;28.60;5.10;;;;;;4975145;28;34123;-77
2022/05/11 09:15:21;;;;;;;2.38;2.17;;;28.70;5.10;;;;;;4991572;28;34232;-78
2022/05/11 09:17:47;;;;;;;7.35;2.08;;;28.90;6.10;;;;;;5008672;28;34090;-80
2022/05/11 09:20:20;;;;;;;5.35;2.13;;;29.00;6.30;;;;;;5009472;28;34903;-76
2022/05/11 09:23:02;;;;;;;2.65;2.13;;;28.90;5.00;;;;;;4990163;28;34197;-78
2022/05/11 09:25:33;;;;;;;2.20;2.00;;;28.90;2.20;;;;;;5004231;28;34510;-79
2022/05/11 09:28:25;;;;;;;3.30;1.80;;;28.80;4.50;;;;;;5009881;28;34204;-77
2022/05/11 09:31:13;;;;;;;1.98;1.60;;;29.00;1.70;;;;;;5010081;28;34296;-77
2022/05/11 09:33:41;;;;;;;2.80;1.90;;;29.00;1.50;;;;;;5007897;28;34188;-77
2022/05/11 09:36:10;;;;;;;1.92;1.83;;;29.00;5.10;;;;;;4978757;28;34154;-76
2022/05/11 09:38:41;;;;;;;3.33;1.73;;;29.10;5.20;;;;;;5008138;28;34494;-77
2022/05/11 09:41:28;;;;;;;2.08;1.75;;;29.10;5.10;;;;;;5008414;28;35757;-76
2022/05/11 09:43:58;;;;;;;2.45;2.10;;;29.30;2.50;;;;;;5026064;28;34113;-78
2022/05/11 09:46:30;;;;;;;2.10;1.90;;;29.30;4.10;;;;;;4996130;28;34210;-78
2022/05/11 09:49:15;;;;;;;2.20;1.90;;;29.30;3.30;;;;;;4988699;28;34360;-77
2022/05/11 09:51:54;;;;;;;4.88;1.83;;;29.20;3.70;;;;;;4998409;28;34612;-78
2022/05/11 09:54:38;;;;;;;1.88;1.52;;;29.00;3.20;;;;;;5007774;28;34319;-77
2022/05/11 09:57:26;;;;;;;3.55;2.15;;;28.80;3.00;;;;;;5006348;28;34127;-75
2022/05/11 09:59:57;;;;;;;1.75;1.58;;;28.90;2.20;;;;;;5000151;28;35075;-77
2022/05/11 10:02:38;;;;;;;3.22;1.90;;;29.10;5.00;;;;;;5006630;28;35239;-78
2022/05/11 10:05:11;;;;;;;1.90;1.75;;;29.30;3.20;;;;;;4989148;28;34405;-75
2022/05/11 10:07:45;;;;;;;2.30;1.90;;;29.50;4.20;;;;;;4976744;28;34000;-77
2022/05/11 10:10:20;;;;;;;2.10;1.90;;;29.70;4.00;;;;;;5007456;28;34496;-77
2022/05/11 10:12:47;;;;;;;2.20;1.85;;;29.80;1.50;;;;;;4997365;28;36526;-77
2022/05/11 10:23:57;;;;;;;3.67;1.85;;;29.80;1.00;;;;;;5006473;28;34066;-77
2022/05/11 10:26:34;;;;;;;2.05;1.90;;;29.60;1.10;;;;;;5009574;28;34279;-77
2022/05/11 10:29:11;;;;;;;4.40;1.75;;;29.60;1.20;;;;;;5015541;28;34215;-76
2022/05/11 10:31:49;;;;;;;2.17;1.60;;;29.80;1.00;;;;;;5013614;28;34304;-77
2022/05/11 10:34:27;;;;;;;3.53;1.70;;;29.80;1.00;;;;;;5026361;28;34313;-78
2022/05/11 10:37:07;;;;;;;5.97;1.80;;;29.80;1.00;;;;;;4987742;28;34071;-77
2022/05/11 10:40:09;;;;;;;1.83;1.63;;;29.90;1.00;;;;;;5016224;28;34259;-80
2022/05/11 10:42:54;;;;;;;2.72;1.70;;;29.90;1.00;;;;;;4977658;28;34166;-78
2022/05/11 10:45:28;;;;;;;3.00;1.98;;;30.00;2.20;;;;;;4992269;28;34440;-77
2022/05/11 10:48:18;;;;;;;2.75;1.60;;;30.20;1.50;;;;;;4986350;28;34215;-77
2022/05/11 10:50:59;;;;;;;2.38;1.40;;;30.30;1.00;;;;;;5001731;28;34163;-77
2022/05/11 10:53:41;;;;;;;2.63;1.83;;;30.40;1.00;;;;;;5008941;28;34178;-76
2022/05/11 10:56:26;;;;;;;3.55;1.58;;;30.40;1.00;;;;;;5005089;28;35863;-77
2022/05/11 10:59:20;;;;;;;2.83;1.70;;;30.50;1.00;;;;;;4990637;28;34188;-77
2022/05/11 11:02:12;;;;;;;2.78;2.10;;;30.50;1.00;;;;;;5011595;28;34274;-77
2022/05/11 11:04:57;;;;;;;2.80;1.70;;;30.50;1.00;;;;;;4989439;28;34194;-80
2022/05/11 11:07:44;;;;;;;2.75;1.63;;;30.50;1.00;;;;;;4989057;28;36577;-79
2022/05/11 11:10:39;;;;;;;2.17;1.60;;;30.60;1.00;;;;;;5006131;28;34154;-79
2022/05/11 11:13:40;;;;;;;3.00;1.70;;;30.40;1.00;;;;;;5009062;28;34213;-78
2022/05/11 11:16:11;;;;;;;3.75;1.60;;;30.60;1.00;;;;;;4985324;28;34252;-78
2022/05/11 11:18:41;;;;;;;2.25;1.92;;;30.60;1.00;;;;;;4971211;28;35543;-76
2022/05/11 11:21:10;;;;;;;2.08;1.90;;;30.80;1.00;;;;;;4973215;28;34327;-79
2022/05/11 11:23:38;;;;;;;1.95;1.48;;;30.70;1.00;;;;;;4975443;28;34162;-78
2022/05/11 11:26:08;;;;;;;3.63;1.80;;;30.60;1.00;;;;;;4964568;28;34509;-76
2022/05/11 11:29:15;;;;;;;2.10;1.77;;;30.70;1.00;;;;;;4987410;28;34965;-77
2022/05/11 11:32:06;;;;;;;2.40;1.63;;;30.90;1.00;;;;;;4963306;28;34126;-78
2022/05/11 11:34:35;;;;;;;2.67;1.77;;;30.80;1.00;;;;;;4980934;28;34356;-77
2022/05/11 11:37:40;;;;;;;4.65;1.58;;;30.80;1.00;;;;;;4949154;28;34137;-79
2022/05/11 11:40:22;;;;;;;2.45;1.67;;;30.60;1.00;;;;;;4970279;28;36961;-80
2022/05/11 11:42:49;;;;;;;1.65;1.50;;;30.50;1.00;;;;;;4953467;28;34436;-78
2022/05/11 11:45:50;;;;;;;5.70;2.00;;;30.50;1.00;;;;;;4985156;28;34143;-78
2022/05/11 11:48:22;;;;;;;1.92;1.80;;;30.30;1.00;;;;;;4949813;28;34402;-77
2022/05/11 11:50:53;;;;;;;2.17;1.60;;;30.30;1.00;;;;;;4974042;28;35972;-77
2022/05/11 11:53:40;;;;;;;3.28;1.75;;;30.40;1.00;;;;;;4971884;28;34210;-77
2022/05/11 11:56:33;;;;;;;2.15;1.67;;;30.40;1.00;;;;;;4981074;28;34290;-78
2022/05/11 11:59:07;;;;;;;2.47;1.60;;;30.50;1.00;;;;;;4980237;28;34178;-78
2022/05/11 12:01:38;;;;;;;2.38;1.60;;;30.50;1.00;;;;;;4970442;28;36803;-77
2022/05/11 12:04:14;;;;;;;2.67;1.88;;;30.50;1.00;;;;;;4967649;28;34281;-78
2022/05/11 12:17:35;;;;;;;2.35;1.50;;;29.80;1.00;;;;;;4985305;28;34142;-77
2022/05/11 12:20:17;;;;;;;3.28;1.50;;;29.60;1.00;;;;;;4969005;28;34056;-78
2022/05/11 12:31:57;;;;;;;3.75;1.73;;;29.80;1.00;;;;;;5007703;28;34169;-76
2022/05/11 12:34:25;;;;;;;3.78;1.35;;;30.00;1.00;;;;;;4971977;28;35614;-76
2022/05/11 12:36:53;;;;;;;4.38;1.42;;;29.80;1.00;;;;;;4984909;28;34426;-76
2022/05/11 12:39:35;;;;;;;1.92;1.33;;;29.80;1.00;;;;;;4972649;28;34064;-78
2022/05/11 12:42:03;;;;;;;2.42;1.20;;;29.80;1.00;;;;;;4989497;28;34119;-79
2022/05/11 12:44:34;;;;;;;1.30;1.20;;;29.90;1.00;;;;;;4980072;28;35325;-79
2022/05/11 12:47:02;;;;;;;4.25;1.20;;;30.00;1.00;;;;;;5000408;28;34149;-78
2022/05/11 12:49:29;;;;;;;4.55;1.27;;;29.80;1.00;;;;;;5008565;28;34525;-77
2022/05/11 12:52:00;;;;;;;12.95;2.10;;;29.70;1.00;;;;;;4983123;28;34628;-77
2022/05/11 12:54:29;;;;;;;1.40;1.30;;;29.70;1.00;;;;;;4972167;28;35632;-77
2022/05/11 12:56:59;;;;;;;2.30;1.08;;;29.80;1.00;;;;;;4991381;28;34270;-77
2022/05/11 12:59:28;;;;;;;1.33;1.13;;;30.00;1.00;;;;;;4991469;28;34178;-78
2022/05/11 13:02:12;;;;;;;2.45;1.35;;;30.20;1.00;;;;;;4995895;28;34324;-77
2022/05/11 13:04:51;;;;;;;4.18;1.52;;;30.10;1.00;;;;;;4985298;28;35496;-77
2022/05/11 13:07:21;;;;;;;3.95;1.27;;;30.40;1.00;;;;;;4999488;28;34162;-75
2022/05/11 13:09:50;;;;;;;4.45;1.40;;;30.50;1.00;;;;;;5000555;28;34356;-77
2022/05/11 13:12:17;;;;;;;4.28;1.13;;;30.30;1.00;;;;;;4990410;28;34137;-76
2022/05/11 13:14:49;;;;;;;1.23;1.00;;;30.40;1.00;;;;;;4991184;28;36498;-76
2022/05/11 13:17:26;;;;;;;2.15;1.00;;;30.40;1.00;;;;;;5008092;28;34149;-78
2022/05/11 13:19:58;;;;;;;3.08;1.13;;;30.50;1.00;;;;;;5004719;28;34415;-79
2022/05/11 13:22:26;;;;;;;4.13;1.00;;;30.60;1.00;;;;;;5015918;28;34407;-76
2022/05/11 13:24:56;;;;;;;1.67;1.27;;;30.30;1.00;;;;;;5001240;28;36250;-76
2022/05/11 13:27:40;;;;;;;1.20;1.02;;;30.30;1.00;;;;;;5004068;28;34224;-76
2022/05/11 13:30:36;;;;;;;6.57;1.02;;;29.90;1.00;;;;;;4997168;28;34460;-78
2022/05/11 13:33:23;;;;;;;1.90;1.00;;;30.00;1.00;;;;;;4997856;28;34419;-78
2022/05/11 13:36:07;;;;;;;1.20;0.90;;;30.10;1.00;;;;;;4982900;28;36059;-77
2022/05/11 13:38:33;;;;;;;5.03;1.30;;;30.20;1.00;;;;;;4998168;28;34091;-77
2022/05/11 13:41:02;;;;;;;7.72;1.50;;;30.10;1.00;;;;;;4990474;28;34475;-77
2022/05/11 13:43:31;;;;;;;4.40;0.90;;;30.10;1.00;;;;;;4987274;28;36079;-75
2022/05/11 13:46:03;;;;;;;3.58;1.10;;;29.80;1.00;;;;;;4994506;28;34535;-75
2022/05/11 13:48:35;;;;;;;1.35;1.00;;;29.80;1.00;;;;;;5008109;28;34157;-78
2022/05/11 13:51:20;;;;;;;3.83;0.90;;;29.80;1.00;;;;;;4991093;28;34249;-77
2022/05/11 13:53:49;;;;;;;3.22;1.00;;;29.70;1.00;;;;;;4974921;28;34002;-77
2022/05/11 13:56:25;;;;;;;2.72;1.00;;;29.70;1.00;;;;;;4964940;28;36310;-80
2022/05/11 13:59:09;;;;;;;1.65;0.98;;;29.60;1.00;;;;;;4988924;28;34355;-75
2022/05/11 14:01:45;;;;;;;4.13;0.80;;;29.60;1.00;;;;;;5005820;28;34226;-77
2022/05/11 14:04:12;;;;;;;1.80;0.90;;;29.60;1.00;;;;;;5008493;28;34238;-76